createdAt,value
2022-09-16T00:01:32.737Z,98746.22
2022-09-16T00:04:01.397Z,98744.75
2022-09-16T00:06:31.281Z,98731.28
2022-09-16T00:09:02.628Z,98753.97
2022-09-16T00:11:35.623Z,98755.16
2022-09-16T00:14:04.676Z,98752.78
2022-09-16T00:16:33.404Z,98746.81
2022-09-16T00:19:03.460Z,98743.31
2022-09-16T00:21:33.134Z,98742.75
2022-09-16T00:24:01.450Z,98751.34
2022-09-16T00:26:30.114Z,98747.13
2022-09-16T00:29:00.060Z,98753.28
2022-09-16T00:31:28.838Z,98742.28
2022-09-16T00:33:57.598Z,98740.78
2022-09-16T00:36:26.198Z,98738.31
2022-09-16T00:38:56.103Z,98743.47
2022-09-16T00:41:28.049Z,98743.63
2022-09-16T00:44:01.261Z,98740.25
2022-09-16T00:46:36.826Z,98747.19
2022-09-16T00:49:12.151Z,98755.72
2022-09-16T00:51:43.580Z,98752.50
2022-09-16T00:54:13.412Z,98755.38
2022-09-16T00:56:45.110Z,98761.66
2022-09-16T00:59:19.876Z,98770.53
2022-09-16T01:01:50.298Z,98770.88
2022-09-16T01:04:23.514Z,98773.63
2022-09-16T01:06:53.193Z,98782.38
2022-09-16T01:09:23.504Z,98783.31
2022-09-16T01:11:52.191Z,98794.69
2022-09-16T01:14:33.713Z,98795.72
2022-09-16T01:17:12.341Z,98797.88
2022-09-16T01:20:01.054Z,98798.06
2022-09-16T01:22:47.624Z,98792.22
2022-09-16T01:25:32.676Z,98796.75
2022-09-16T01:28:28.265Z,98793.59
2022-09-16T01:31:13.629Z,98797.47
2022-09-16T01:33:53.821Z,98785.91
2022-09-16T01:36:33.067Z,98796.56
2022-09-16T01:39:10.893Z,98796.81
2022-09-16T01:41:47.985Z,98794.47
2022-09-16T01:44:27.175Z,98787.69
2022-09-16T01:47:03.717Z,98779.91
2022-09-16T01:49:44.203Z,98773.91
2022-09-16T01:52:25.231Z,98779.81
2022-09-16T01:55:02.776Z,98769.84
2022-09-16T01:57:36.008Z,98778.66
2022-09-16T02:00:08.762Z,98775.41
2022-09-16T02:02:44.013Z,98788.50
2022-09-16T02:05:18.145Z,98796.44
2022-09-16T02:08:02.305Z,98782.91
2022-09-16T02:10:34.006Z,98783.91
2022-09-16T02:13:09.735Z,98778.59
2022-09-16T02:15:43.643Z,98793.88
2022-09-16T02:18:17.456Z,98795.81
2022-09-16T02:20:50.244Z,98798.84
2022-09-16T02:23:24.445Z,98799.34
2022-09-16T02:25:56.695Z,98797.94
2022-09-16T02:28:29.194Z,98806.78
2022-09-16T02:31:02.315Z,98805.28
2022-09-16T02:33:35.008Z,98798.56
2022-09-16T02:36:06.249Z,98802.03
2022-09-16T02:38:40.544Z,98803.16
2022-09-16T02:41:14.819Z,98797.31
2022-09-16T02:43:43.932Z,98786.97
2022-09-16T02:46:20.364Z,98798.31
2022-09-16T02:48:59.901Z,98797.59
2022-09-16T02:51:39.357Z,98796.88
2022-09-16T02:54:15.544Z,98799.22
2022-09-16T02:56:44.772Z,98798.28
2022-09-16T02:59:14.974Z,98796.69
2022-09-16T03:01:46.702Z,98799.50
2022-09-16T03:04:19.915Z,98796.06
2022-09-16T03:06:49.406Z,98798.72
2022-09-16T03:09:24.094Z,98803.13
2022-09-16T03:12:15.691Z,98801.28
2022-09-16T03:15:12.593Z,98799.69
2022-09-16T03:18:05.484Z,98798.91
2022-09-16T03:20:47.124Z,98795.47
2022-09-16T03:23:26.247Z,98788.72
2022-09-16T03:26:00.526Z,98801.53
2022-09-16T03:28:39.314Z,98793.06
2022-09-16T03:31:11.678Z,98787.22
2022-09-16T03:33:48.337Z,98790.00
2022-09-16T03:36:24.651Z,98788.25
2022-09-16T03:38:55.282Z,98791.50
2022-09-16T03:41:24.542Z,98788.25
2022-09-16T03:44:01.594Z,98800.25
2022-09-16T03:46:33.215Z,98797.66
2022-09-16T03:49:02.074Z,98799.66
2022-09-16T03:51:32.038Z,98810.94
2022-09-16T03:54:00.575Z,98807.56
2022-09-16T03:56:29.177Z,98803.50
2022-09-16T03:58:58.537Z,98804.34
2022-09-16T04:01:27.163Z,98810.44
2022-09-16T04:03:55.859Z,98796.16
2022-09-16T04:06:24.607Z,98809.88
2022-09-16T04:08:54.811Z,98813.41
2022-09-16T04:11:23.533Z,98804.91
2022-09-16T04:13:52.205Z,98803.16
2022-09-16T04:16:22.014Z,98812.44
2022-09-16T04:18:50.470Z,98808.44
2022-09-16T04:21:19.906Z,98812.78
2022-09-16T04:23:48.723Z,98814.66
2022-09-16T04:26:19.324Z,98810.75
2022-09-16T04:28:48.226Z,98810.97
2022-09-16T04:31:17.638Z,98809.38
2022-09-16T04:33:46.345Z,98810.34
2022-09-16T04:36:20.214Z,98812.09
2022-09-16T04:38:50.391Z,98818.91
2022-09-16T04:41:22.550Z,98821.63
2022-09-16T04:43:53.998Z,98816.56
2022-09-16T04:46:23.039Z,98822.38
2022-09-16T04:48:53.791Z,98814.53
2022-09-16T04:51:24.138Z,98819.38
2022-09-16T04:53:52.857Z,98812.22
2022-09-16T04:56:25.479Z,98820.22
2022-09-16T04:58:56.146Z,98829.09
2022-09-16T05:01:27.192Z,98831.97
2022-09-16T05:03:58.638Z,98846.00
2022-09-16T05:06:29.372Z,98840.41
2022-09-16T05:08:58.508Z,98839.22
2022-09-16T05:11:30.692Z,98843.06
2022-09-16T05:14:04.533Z,98832.47
2022-09-16T05:16:34.670Z,98827.91
2022-09-16T05:19:05.175Z,98831.94
2022-09-16T05:21:36.877Z,98824.09
2022-09-16T05:24:09.004Z,98816.09
2022-09-16T05:26:42.172Z,98812.53
2022-09-16T05:29:13.854Z,98803.56
2022-09-16T05:31:45.451Z,98804.00
2022-09-16T05:34:16.120Z,98809.69
2022-09-16T05:36:48.048Z,98811.97
2022-09-16T05:39:25.920Z,98816.03
2022-09-16T05:41:58.455Z,98810.47
2022-09-16T05:44:27.741Z,98810.94
2022-09-16T05:46:56.842Z,98802.75
2022-09-16T05:49:25.892Z,98817.75
2022-09-16T05:51:54.983Z,98810.50
2022-09-16T05:54:25.643Z,98813.50
2022-09-16T05:56:54.240Z,98814.88
2022-09-16T05:59:24.914Z,98812.63
2022-09-16T06:01:54.263Z,98804.59
2022-09-16T06:04:22.853Z,98798.25
2022-09-16T06:06:51.410Z,98799.50
2022-09-16T06:09:22.460Z,98795.69
2022-09-16T06:11:57.970Z,98804.78
2022-09-16T06:14:32.223Z,98813.00
2022-09-16T06:17:00.940Z,98809.88
2022-09-16T06:19:29.559Z,98808.69
2022-09-16T06:21:58.125Z,98804.09
2022-09-16T06:24:26.730Z,98815.06
2022-09-16T06:26:55.397Z,98805.25
2022-09-16T06:29:24.034Z,98803.28
2022-09-16T06:31:53.969Z,98803.88
2022-09-16T06:34:22.449Z,98811.22
2022-09-16T06:36:51.031Z,98809.06
2022-09-16T06:39:19.750Z,98814.81
2022-09-16T06:41:48.355Z,98806.97
2022-09-16T06:44:16.870Z,98807.81
2022-09-16T06:46:45.534Z,98808.28
2022-09-16T06:49:15.486Z,98809.69
2022-09-16T06:51:44.116Z,98811.22
2022-09-16T06:54:13.083Z,98813.69
2022-09-16T06:56:41.918Z,98811.88
2022-09-16T06:59:11.614Z,98809.16
2022-09-16T07:01:40.295Z,98815.72
2022-09-16T07:04:13.507Z,98818.66
2022-09-16T07:07:09.157Z,98832.09
2022-09-16T07:09:32.837Z,98835.31
2022-09-16T07:12:02.035Z,98831.25
2022-09-16T07:14:32.972Z,98824.00
2022-09-16T07:17:01.927Z,98828.66
2022-09-16T07:19:30.586Z,98834.34
2022-09-16T07:22:00.577Z,98833.44
2022-09-16T07:24:29.172Z,98836.41
2022-09-16T07:26:58.203Z,98825.47
2022-09-16T07:29:27.714Z,98823.88
2022-09-16T07:31:56.827Z,98829.88
2022-09-16T07:34:25.286Z,98822.34
2022-09-16T07:36:53.845Z,98822.91
2022-09-16T07:39:25.931Z,98832.81
2022-09-16T07:41:54.527Z,98829.59
2022-09-16T07:44:23.022Z,98838.28
2022-09-16T07:46:52.094Z,98837.84
2022-09-16T07:49:20.948Z,98830.56
2022-09-16T07:51:49.736Z,98840.69
2022-09-16T07:54:21.715Z,98841.31
2022-09-16T07:56:51.725Z,98835.81
2022-09-16T07:59:22.309Z,98832.69
2022-09-16T08:01:51.562Z,98838.72
2022-09-16T08:04:21.045Z,98837.13
2022-09-16T08:06:50.437Z,98832.19
2022-09-16T08:09:39.721Z,98824.56
2022-09-16T08:12:11.576Z,98819.66
2022-09-16T08:14:40.376Z,98812.19
2022-09-16T08:17:08.908Z,98818.00
2022-09-16T08:19:39.462Z,98813.66
2022-09-16T08:22:08.139Z,98826.81
2022-09-16T08:24:36.979Z,98820.38
2022-09-16T08:27:06.548Z,98821.34
2022-09-16T08:29:36.151Z,98821.88
2022-09-16T08:32:04.543Z,98832.59
2022-09-16T08:34:33.088Z,98821.66
2022-09-16T08:37:01.604Z,98820.63
2022-09-16T08:39:30.196Z,98824.81
2022-09-16T08:42:23.373Z,98827.31
2022-09-16T08:45:04.411Z,98826.19
2022-09-16T08:47:44.260Z,98829.00
2022-09-16T08:50:18.646Z,98829.28
2022-09-16T08:52:49.130Z,98832.91
2022-09-16T08:55:23.763Z,98831.88
2022-09-16T08:57:59.622Z,98829.03
2022-09-16T09:00:30.799Z,98824.72
2022-09-16T09:03:08.989Z,98818.59
2022-09-16T09:05:46.697Z,98809.56
2022-09-16T09:08:29.418Z,98813.34
2022-09-16T09:11:04.594Z,98815.97
2022-09-16T09:13:45.202Z,98812.81
2022-09-16T09:16:26.505Z,98809.53
2022-09-16T09:19:07.847Z,98814.28
2022-09-16T09:21:45.369Z,98814.09
2022-09-16T09:24:31.637Z,98811.16
2022-09-16T09:27:06.179Z,98802.53
2022-09-16T09:29:48.512Z,98802.94
2022-09-16T09:32:29.072Z,98806.44
2022-09-16T09:35:20.419Z,98794.81
2022-09-16T09:38:36.399Z,98798.03
2022-09-16T09:41:11.221Z,98792.91
2022-09-16T09:43:46.805Z,98803.09
2022-09-16T09:46:23.712Z,98809.34
2022-09-16T09:48:59.363Z,98808.66
2022-09-16T09:51:33.455Z,98812.97
2022-09-16T09:54:11.448Z,98802.88
2022-09-16T09:56:45.761Z,98805.75
2022-09-16T09:59:29.805Z,98802.94
2022-09-16T10:02:02.250Z,98795.44
2022-09-16T10:04:38.490Z,98801.34
2022-09-16T10:07:08.100Z,98795.28
2022-09-16T10:09:37.617Z,98804.78
2022-09-16T10:12:06.461Z,98810.97
2022-09-16T10:14:37.775Z,98815.69
2022-09-16T10:17:16.038Z,98815.16
2022-09-16T10:19:55.784Z,98820.53
2022-09-16T10:22:28.192Z,98818.84
2022-09-16T10:24:59.133Z,98812.16
2022-09-16T10:27:30.045Z,98813.84
2022-09-16T10:30:12.587Z,98809.72
2022-09-16T10:32:54.262Z,98810.00
2022-09-16T10:35:27.334Z,98803.59
2022-09-16T10:37:58.465Z,98805.53
2022-09-16T10:40:28.278Z,98806.50
2022-09-16T10:43:03.701Z,98810.72
2022-09-16T10:45:35.913Z,98804.16
2022-09-16T10:48:13.464Z,98800.13
2022-09-16T10:50:56.016Z,98795.78
2022-09-16T10:53:30.889Z,98795.78
2022-09-16T10:56:02.090Z,98805.41
2022-09-16T10:58:31.072Z,98808.00
2022-09-16T11:01:23.801Z,98809.84
2022-09-16T11:04:15.392Z,98813.63
2022-09-16T11:07:02.568Z,98813.47
2022-09-16T11:09:37.406Z,98810.91
2022-09-16T11:12:29.376Z,98817.47
2022-09-16T11:15:08.756Z,98815.28
2022-09-16T11:17:45.835Z,98811.03
2022-09-16T11:20:36.117Z,98804.16
2022-09-16T11:23:15.286Z,98802.19
2022-09-16T11:25:52.691Z,98801.84
2022-09-16T11:28:55.361Z,98802.53
2022-09-16T11:31:36.016Z,98811.22
2022-09-16T11:34:17.689Z,98810.06
2022-09-16T11:36:57.537Z,98800.81
2022-09-16T11:39:42.427Z,98795.03
2022-09-16T11:42:19.628Z,98791.81
2022-09-16T11:44:53.795Z,98791.69
2022-09-16T11:47:45.791Z,98789.09
2022-09-16T11:50:30.606Z,98792.13
2022-09-16T11:53:21.843Z,98796.78
2022-09-16T11:55:58.869Z,98785.91
2022-09-16T11:58:36.383Z,98770.81
2022-09-16T12:01:14.839Z,98778.97
2022-09-16T12:03:50.044Z,98785.13
2022-09-16T12:06:24.393Z,98780.81
2022-09-16T12:08:58.751Z,98781.47
2022-09-16T12:11:34.954Z,98789.69
2022-09-16T12:14:12.786Z,98786.19
2022-09-16T12:16:46.861Z,98784.91
2022-09-16T12:19:23.492Z,98780.75
2022-09-16T12:21:58.344Z,98774.66
2022-09-16T12:24:37.193Z,98781.94
2022-09-16T12:27:15.440Z,98772.34
2022-09-16T12:29:50.019Z,98766.56
2022-09-16T12:32:32.516Z,98762.28
2022-09-16T12:35:06.636Z,98758.06
2022-09-16T12:37:41.837Z,98762.28
2022-09-16T12:40:18.941Z,98747.53
2022-09-16T12:43:12.321Z,98743.41
2022-09-16T12:46:12.742Z,98737.50
2022-09-16T12:49:11.194Z,98731.56
2022-09-16T12:51:59.813Z,98727.91
2022-09-16T12:55:06.613Z,98728.06
2022-09-16T12:57:54.512Z,98721.81
2022-09-16T13:00:27.692Z,98737.19
2022-09-16T13:02:59.362Z,98727.00
2022-09-16T13:05:33.330Z,98724.31
2022-09-16T13:08:06.523Z,98732.16
2022-09-16T13:10:55.780Z,98734.81
2022-09-16T13:13:33.726Z,98739.47
2022-09-16T13:16:07.167Z,98736.88
2022-09-16T13:18:47.092Z,98736.00
2022-09-16T13:21:26.233Z,98732.78
2022-09-16T13:24:04.723Z,98735.44
2022-09-16T13:26:41.966Z,98733.84
2022-09-16T13:29:26.233Z,98734.75
2022-09-16T13:34:31.288Z,98738.84
2022-09-16T13:36:59.850Z,98748.28
2022-09-16T13:39:33.829Z,98741.44
2022-09-16T13:42:18.431Z,98728.06
2022-09-16T13:44:47.344Z,98730.81
2022-09-16T13:47:34.796Z,98728.38
2022-09-16T13:50:14.304Z,98720.09
2022-09-16T13:52:44.073Z,98723.50
2022-09-16T13:55:22.732Z,98708.97
2022-09-16T13:58:01.712Z,98725.78
2022-09-16T14:00:37.761Z,98715.44
2022-09-16T14:03:31.289Z,98708.28
2022-09-16T14:06:28.265Z,98718.63
2022-09-16T14:09:05.189Z,98714.31
2022-09-16T14:11:47.206Z,98717.03
2022-09-16T14:14:45.792Z,98721.38
2022-09-16T14:17:18.485Z,98721.47
2022-09-16T14:19:50.930Z,98698.94
2022-09-16T14:22:23.651Z,98696.09
2022-09-16T14:25:00.711Z,98690.63
2022-09-16T14:27:39.952Z,98699.16
2022-09-16T14:30:17.249Z,98699.16
2022-09-16T14:32:47.770Z,98698.47
2022-09-16T14:35:22.143Z,98701.28
2022-09-16T14:37:56.587Z,98691.50
2022-09-16T14:40:28.489Z,98693.56
2022-09-16T14:43:01.834Z,98693.84
2022-09-16T14:45:32.322Z,98690.66
2022-09-16T14:48:04.347Z,98692.34
2022-09-16T14:50:38.765Z,98689.59
2022-09-16T14:53:20.588Z,98690.28
2022-09-16T14:55:50.844Z,98696.34
2022-09-16T14:58:21.183Z,98701.69
2022-09-16T15:00:55.159Z,98701.63
2022-09-16T15:03:30.024Z,98705.09
2022-09-16T15:06:07.307Z,98690.50
2022-09-16T15:08:46.973Z,98691.78
2022-09-16T15:11:43.604Z,98688.78
2022-09-16T15:14:09.453Z,98691.72
2022-09-16T15:16:45.573Z,98678.19
2022-09-16T15:19:21.591Z,98661.31
2022-09-16T15:21:52.235Z,98661.59
2022-09-16T15:24:25.293Z,98654.88
2022-09-16T15:26:54.301Z,98661.78
2022-09-16T15:29:32.209Z,98666.16
2022-09-16T15:32:22.801Z,98674.66
2022-09-16T15:35:06.430Z,98682.41
2022-09-16T15:37:36.630Z,98678.88
2022-09-16T15:40:24.423Z,98684.06
2022-09-16T15:43:06.031Z,98675.69
2022-09-16T15:45:34.872Z,98675.84
2022-09-16T15:48:07.895Z,98672.50
2022-09-16T15:50:42.874Z,98669.31
2022-09-16T15:53:17.926Z,98674.69
2022-09-16T15:55:56.974Z,98660.94
2022-09-16T15:58:37.941Z,98660.19
2022-09-16T16:01:13.538Z,98654.31
2022-09-16T16:03:55.504Z,98658.84
2022-09-16T16:06:49.935Z,98661.53
2022-09-16T16:09:39.209Z,98665.00
2022-09-16T16:12:12.397Z,98660.28
2022-09-16T16:14:42.345Z,98651.81
2022-09-16T16:17:14.765Z,98649.31
2022-09-16T16:19:45.148Z,98645.34
2022-09-16T16:22:14.813Z,98640.50
2022-09-16T16:24:44.120Z,98636.44
2022-09-16T16:27:14.102Z,98646.81
2022-09-16T16:29:42.754Z,98648.84
2022-09-16T16:32:13.555Z,98654.16
2022-09-16T16:34:44.743Z,98648.31
2022-09-16T16:37:33.773Z,98646.56
2022-09-16T16:40:05.376Z,98648.56
2022-09-16T16:42:36.165Z,98650.78
2022-09-16T16:45:05.805Z,98652.84
2022-09-16T16:47:35.082Z,98658.22
2022-09-16T16:50:03.936Z,98645.59
2022-09-16T16:52:32.497Z,98645.66
2022-09-16T16:55:01.200Z,98643.22
2022-09-16T16:57:29.947Z,98638.84
2022-09-16T17:00:00.017Z,98636.34
2022-09-16T17:02:28.802Z,98636.38
2022-09-16T17:04:57.431Z,98641.66
2022-09-16T17:07:27.711Z,98646.97
2022-09-16T17:09:58.787Z,98646.97
2022-09-16T17:12:27.617Z,98647.75
2022-09-16T17:14:56.293Z,98651.41
2022-09-16T17:17:30.720Z,98656.66
2022-09-16T17:20:00.753Z,98652.50
2022-09-16T17:22:29.293Z,98657.53
2022-09-16T17:24:58.054Z,98662.69
2022-09-16T17:27:28.034Z,98652.25
2022-09-16T17:29:57.234Z,98653.94
2022-09-16T17:32:27.262Z,98653.88
2022-09-16T17:34:56.223Z,98669.25
2022-09-16T17:37:24.765Z,98664.25
2022-09-16T17:39:53.460Z,98659.22
2022-09-16T17:42:22.030Z,98658.47
2022-09-16T17:44:50.769Z,98654.41
2022-09-16T17:47:19.409Z,98654.59
2022-09-16T17:49:50.332Z,98656.97
2022-09-16T17:52:19.097Z,98663.88
2022-09-16T17:54:47.618Z,98668.38
2022-09-16T17:57:16.966Z,98673.59
2022-09-16T17:59:45.527Z,98673.03
2022-09-16T18:02:14.226Z,98672.38
2022-09-16T18:04:43.209Z,98663.88
2022-09-16T18:07:13.990Z,98660.41
2022-09-16T18:09:42.702Z,98659.75
2022-09-16T18:12:11.919Z,98659.09
2022-09-16T18:14:40.669Z,98662.78
2022-09-16T18:17:09.398Z,98676.63
2022-09-16T18:19:38.189Z,98680.88
2022-09-16T18:22:06.888Z,98679.06
2022-09-16T18:24:38.066Z,98682.44
2022-09-16T18:27:06.970Z,98685.00
2022-09-16T18:29:35.712Z,98686.56
2022-09-16T18:32:04.465Z,98697.50
2022-09-16T18:34:33.735Z,98700.09
2022-09-16T18:37:02.876Z,98693.34
2022-09-16T18:39:32.052Z,98693.75
2022-09-16T18:42:02.198Z,98672.69
2022-09-16T18:44:30.898Z,98665.22
2022-09-16T18:47:00.098Z,98667.75
2022-09-16T18:49:30.379Z,98671.09
2022-09-16T18:51:59.456Z,98684.06
2022-09-16T18:54:30.117Z,98701.28
2022-09-16T18:57:00.421Z,98695.63
2022-09-16T18:59:34.370Z,98700.00
2022-09-16T19:02:04.091Z,98699.16
2022-09-16T19:04:35.278Z,98699.75
2022-09-16T19:07:08.265Z,98702.31
2022-09-16T19:09:39.958Z,98691.13
2022-09-16T19:12:12.071Z,98693.50
2022-09-16T19:14:42.862Z,98697.94
2022-09-16T19:17:12.375Z,98700.31
2022-09-16T19:19:41.129Z,98685.72
2022-09-16T19:22:10.656Z,98691.63
2022-09-16T19:24:39.325Z,98695.91
2022-09-16T19:27:08.337Z,98695.81
2022-09-16T19:29:37.496Z,98694.97
2022-09-16T19:32:07.762Z,98699.63
2022-09-16T19:34:36.709Z,98686.09
2022-09-16T19:37:05.500Z,98668.56
2022-09-16T19:39:35.208Z,98666.19
2022-09-16T19:42:03.966Z,98670.00
2022-09-16T19:44:33.175Z,98682.94
2022-09-16T19:47:02.626Z,98683.13
2022-09-16T19:49:33.474Z,98676.56
2022-09-16T19:52:02.539Z,98676.63
2022-09-16T19:54:31.425Z,98677.47
2022-09-16T19:57:00.181Z,98676.63
2022-09-16T19:59:28.711Z,98672.44
2022-09-16T20:01:59.821Z,98677.00
2022-09-16T20:04:28.840Z,98684.88
2022-09-16T20:06:59.010Z,98686.56
2022-09-16T20:09:27.721Z,98691.94
2022-09-16T20:11:56.470Z,98696.19
2022-09-16T20:14:33.944Z,98696.75
2022-09-16T20:17:02.661Z,98684.66
2022-09-16T20:19:31.402Z,98691.34
2022-09-16T20:22:01.774Z,98691.22
2022-09-16T20:24:30.603Z,98691.22
2022-09-16T20:26:59.165Z,98691.97
2022-09-16T20:29:27.827Z,98696.13
2022-09-16T20:31:56.412Z,98699.72
2022-09-16T20:34:25.276Z,98701.41
2022-09-16T20:36:53.909Z,98697.03
2022-09-16T20:39:24.050Z,98696.09
2022-09-16T20:41:52.971Z,98704.53
2022-09-16T20:44:21.852Z,98701.91
2022-09-16T20:46:50.604Z,98700.94
2022-09-16T20:49:23.194Z,98700.81
2022-09-16T20:51:52.765Z,98705.97
2022-09-16T20:54:21.347Z,98695.84
2022-09-16T20:56:52.392Z,98705.31
2022-09-16T20:59:21.713Z,98705.25
2022-09-16T21:01:50.821Z,98708.72
2022-09-16T21:04:21.675Z,98720.81
2022-09-16T21:06:50.658Z,98724.44
2022-09-16T21:09:19.594Z,98727.03
2022-09-16T21:11:52.095Z,98729.47
2022-09-16T21:14:23.085Z,98737.81
2022-09-16T21:16:53.186Z,98732.63
2022-09-16T21:19:21.822Z,98737.69
2022-09-16T21:21:50.351Z,98728.31
2022-09-16T21:24:20.133Z,98727.47
2022-09-16T21:26:48.971Z,98721.41
2022-09-16T21:29:21.422Z,98738.53
2022-09-16T21:31:51.808Z,98737.69
2022-09-16T21:34:22.059Z,98739.59
2022-09-16T21:36:53.577Z,98741.47
2022-09-16T21:39:23.004Z,98746.72
2022-09-16T21:41:51.870Z,98748.53
2022-09-16T21:44:20.555Z,98745.94
2022-09-16T21:46:52.119Z,98753.75
2022-09-16T21:49:25.556Z,98763.19
2022-09-16T21:51:55.987Z,98755.63
2022-09-16T21:54:25.656Z,98753.22
2022-09-16T21:56:54.452Z,98745.63
2022-09-16T21:59:23.063Z,98750.81
2022-09-16T22:01:53.349Z,98756.81
2022-09-16T22:04:23.752Z,98742.38
2022-09-16T22:06:55.898Z,98743.25
2022-09-16T22:09:24.741Z,98734.88
2022-09-16T22:11:53.412Z,98738.56
2022-09-16T22:14:22.060Z,98735.44
2022-09-16T22:16:50.634Z,98740.91
2022-09-16T22:19:21.371Z,98746.31
2022-09-16T22:21:52.492Z,98747.44
2022-09-16T22:24:21.681Z,98747.56
2022-09-16T22:26:52.566Z,98751.13
2022-09-16T22:29:21.284Z,98754.66
2022-09-16T22:31:49.936Z,98758.16
2022-09-16T22:34:19.121Z,98762.75
2022-09-16T22:36:49.061Z,98766.41
2022-09-16T22:39:20.042Z,98787.09
2022-09-16T22:41:48.980Z,98784.66
2022-09-16T22:44:17.513Z,98790.75
2022-09-16T22:46:48.136Z,98784.75
2022-09-16T22:49:17.472Z,98786.72
2022-09-16T22:51:46.437Z,98779.06
2022-09-16T22:54:17.177Z,98777.28
2022-09-16T22:56:46.003Z,98764.50
2022-09-16T22:59:18.676Z,98768.88
2022-09-16T23:01:48.595Z,98757.13
2022-09-16T23:04:17.541Z,98749.56
2022-09-16T23:06:47.361Z,98755.84
2022-09-16T23:09:17.464Z,98748.97
2022-09-16T23:11:46.336Z,98761.63
2022-09-16T23:14:16.147Z,98764.22
2022-09-16T23:16:44.695Z,98768.56
2022-09-16T23:19:13.639Z,98763.28
2022-09-16T23:21:43.074Z,98761.66
2022-09-16T23:24:19.301Z,98753.94
2022-09-16T23:26:49.413Z,98739.50
2022-09-16T23:29:19.682Z,98740.31
2022-09-16T23:31:48.349Z,98737.81
2022-09-16T23:34:19.416Z,98742.94
2022-09-16T23:36:48.503Z,98741.06
2022-09-16T23:39:19.775Z,98735.31
2022-09-16T23:41:49.587Z,98725.31
2022-09-16T23:44:18.036Z,98734.63
2022-09-16T23:46:46.763Z,98738.38
2022-09-16T23:49:17.202Z,98747.28
2022-09-16T23:51:45.909Z,98749.25
2022-09-16T23:54:16.563Z,98756.06
2022-09-16T23:56:47.100Z,98753.59
2022-09-16T23:59:15.621Z,98742.78
